Wetterdaten: Woche 09.05.16 - 15.05.16 (KW19)
Datum Zeit Temperatur Luftfeuchte Luftdruck Niederschlag Windrichtung Sonnenschein Solar Wind
09.05.2016 00:00 9,5 C 95 % 1009,4 hPa 0,0 l/m N 0,00 h 0 W/m 0,0 km/h (0 Bft)
09.05.2016 01:00 9,1 C 96 % 1009,3 hPa 0,0 l/m N 0,00 h 0 W/m 0,3 km/h (0 Bft)
09.05.2016 02:00 9,2 C 95 % 1009,1 hPa 0,0 l/m W-NW 0,00 h 0 W/m 2,7 km/h (1 Bft)
09.05.2016 03:00 9,1 C 93 % 1009,2 hPa 0,0 l/m W-NW 0,00 h 0 W/m 2,7 km/h (1 Bft)
09.05.2016 04:00 8,6 C 94 % 1009,3 hPa 0,0 l/m W-NW 0,00 h 0 W/m 0,9 km/h (0 Bft)
09.05.2016 05:00 8,0 C 94 % 1009,3 hPa 0,0 l/m N 0,00 h 6 W/m 0,5 km/h (0 Bft)
09.05.2016 06:00 8,0 C 95 % 1009,4 hPa 0,0 l/m N 0,00 h 27 W/m 0,0 km/h (0 Bft)
09.05.2016 07:00 9,5 C 92 % 1009,8 hPa 0,0 l/m W-NW 0,42 h 143 W/m 2,4 km/h (1 Bft)
09.05.2016 08:00 11,9 C 85 % 1010,2 hPa 0,0 l/m W-NW 0,75 h 312 W/m 4,5 km/h (1 Bft)
09.05.2016 09:00 14,5 C 76 % 1010,4 hPa 0,0 l/m W-NW 1,00 h 477 W/m 2,9 km/h (1 Bft)
09.05.2016 10:00 16,8 C 66 % 1010,4 hPa 0,0 l/m W 1,00 h 567 W/m 4,5 km/h (1 Bft)
09.05.2016 11:00 18,5 C 59 % 1010,2 hPa 0,0 l/m W 0,83 h 462 W/m 2,5 km/h (1 Bft)
09.05.2016 12:00 19,9 C 53 % 1010,0 hPa 0,0 l/m S 0,58 h 481 W/m 2,7 km/h (1 Bft)
09.05.2016 13:00 21,0 C 48 % 1010,2 hPa 0,0 l/m S-SO 0,33 h 464 W/m 5,9 km/h (2 Bft)
09.05.2016 14:00 21,7 C 44 % 1010,3 hPa 0,0 l/m O 0,75 h 717 W/m 7,9 km/h (2 Bft)
09.05.2016 15:00 22,7 C 42 % 1010,3 hPa 0,0 l/m O-SO 0,75 h 512 W/m 8,9 km/h (2 Bft)
09.05.2016 16:00 22,8 C 42 % 1010,0 hPa 0,0 l/m O-SO 0,50 h 465 W/m 6,7 km/h (2 Bft)
09.05.2016 17:00 23,6 C 40 % 1009,7 hPa 0,0 l/m SO 0,92 h 475 W/m 10,7 km/h (2 Bft)
09.05.2016 18:00 22,2 C 43 % 1009,3 hPa 0,0 l/m SO 0,17 h 156 W/m 5,1 km/h (1 Bft)
09.05.2016 19:00 21,9 C 45 % 1009,0 hPa 0,0 l/m O 0,50 h 111 W/m 7,8 km/h (2 Bft)
09.05.2016 20:00 18,8 C 61 % 1009,2 hPa 0,0 l/m N 0,00 h 13 W/m 0,1 km/h (0 Bft)
09.05.2016 21:00 17,5 C 65 % 1009,6 hPa 0,0 l/m SO 0,00 h 0 W/m 2,7 km/h (1 Bft)
09.05.2016 22:00 15,5 C 73 % 1009,6 hPa 0,0 l/m SO 0,00 h 0 W/m 0,7 km/h (0 Bft)
09.05.2016 23:00 13,7 C 80 % 1009,4 hPa 0,0 l/m N 0,00 h 0 W/m 0,0 km/h (0 Bft)
10.05.2016 00:00 12,4 C 84 % 1009,3 hPa 0,0 l/m N 0,00 h 0 W/m 0,0 km/h (0 Bft)
10.05.2016 01:00 11,8 C 87 % 1008,8 hPa 0,0 l/m SO 0,00 h 0 W/m 0,3 km/h (0 Bft)
10.05.2016 02:00 11,7 C 86 % 1008,8 hPa 0,0 l/m N 0,00 h 0 W/m 0,8 km/h (0 Bft)
10.05.2016 03:00 11,9 C 85 % 1008,4 hPa 0,0 l/m SO 0,00 h 0 W/m 0,0 km/h (0 Bft)
10.05.2016 04:00 11,9 C 84 % 1007,9 hPa 0,0 l/m N 0,00 h 0 W/m 1,5 km/h (1 Bft)
10.05.2016 05:00 11,7 C 83 % 1007,5 hPa 0,0 l/m SO 0,00 h 5 W/m 1,2 km/h (1 Bft)
10.05.2016 06:00 11,7 C 84 % 1007,3 hPa 0,0 l/m SO 0,00 h 16 W/m 4,3 km/h (1 Bft)
10.05.2016 07:00 11,9 C 84 % 1006,9 hPa 0,0 l/m O-SO 0,00 h 62 W/m 4,8 km/h (1 Bft)
10.05.2016 08:00 12,9 C 82 % 1006,6 hPa 0,0 l/m O-NO 0,00 h 89 W/m 4,3 km/h (1 Bft)
10.05.2016 09:00 13,7 C 81 % 1006,4 hPa 0,0 l/m N-NO 0,00 h 197 W/m 5,5 km/h (1 Bft)
10.05.2016 10:00 15,9 C 74 % 1006,3 hPa 0,0 l/m NO 0,75 h 464 W/m 7,9 km/h (2 Bft)
10.05.2016 11:00 18,5 C 63 % 1006,2 hPa 0,0 l/m NO 0,50 h 479 W/m 11,5 km/h (2 Bft)
10.05.2016 12:00 19,6 C 61 % 1006,5 hPa 0,0 l/m O 0,08 h 332 W/m 9,0 km/h (2 Bft)
10.05.2016 13:00 19,4 C 65 % 1006,9 hPa 0,0 l/m N-NO 0,00 h 246 W/m 6,6 km/h (2 Bft)
10.05.2016 14:00 18,8 C 72 % 1006,8 hPa 0,0 l/m NO 0,33 h 401 W/m 13,6 km/h (3 Bft)
10.05.2016 15:00 20,0 C 64 % 1006,5 hPa 0,0 l/m O-NO 0,33 h 349 W/m 9,1 km/h (2 Bft)
10.05.2016 16:00 19,9 C 61 % 1006,6 hPa 0,0 l/m N-NO 0,00 h 273 W/m 13,0 km/h (3 Bft)
10.05.2016 17:00 19,4 C 63 % 1006,7 hPa 0,0 l/m O-NO 0,42 h 327 W/m 16,6 km/h (3 Bft)
10.05.2016 18:00 19,8 C 60 % 1006,7 hPa 0,0 l/m NO 1,00 h 338 W/m 16,6 km/h (3 Bft)
10.05.2016 19:00 18,5 C 67 % 1006,5 hPa 0,0 l/m O-NO 0,58 h 109 W/m 13,8 km/h (3 Bft)
10.05.2016 20:00 17,2 C 71 % 1006,8 hPa 0,0 l/m O 0,08 h 17 W/m 6,8 km/h (2 Bft)
10.05.2016 21:00 14,6 C 83 % 1006,9 hPa 0,0 l/m N 0,00 h 0 W/m 0,1 km/h (0 Bft)
10.05.2016 22:00 13,4 C 87 % 1006,9 hPa 0,0 l/m N 0,00 h 0 W/m 0,3 km/h (0 Bft)
10.05.2016 23:00 12,5 C 90 % 1006,4 hPa 0,0 l/m O-NO 0,00 h 0 W/m 1,2 km/h (1 Bft)
11.05.2016 00:00 11,7 C 93 % 1006,0 hPa 0,0 l/m N 0,00 h 0 W/m 0,8 km/h (0 Bft)
11.05.2016 01:00 11,4 C 93 % 1005,8 hPa 0,0 l/m NO 0,00 h 0 W/m 4,7 km/h (1 Bft)
11.05.2016 02:00 10,9 C 94 % 1005,4 hPa 0,0 l/m N 0,00 h 0 W/m 2,1 km/h (1 Bft)
11.05.2016 03:00 10,6 C 96 % 1004,7 hPa 0,0 l/m NO 0,00 h 0 W/m 1,7 km/h (1 Bft)
11.05.2016 04:00 10,3 C 96 % 1004,0 hPa 0,0 l/m NO 0,00 h 0 W/m 3,5 km/h (1 Bft)
11.05.2016 05:00 10,0 C 97 % 1003,5 hPa 0,0 l/m NO 0,00 h 5 W/m 3,2 km/h (1 Bft)
11.05.2016 06:00 9,9 C 97 % 1003,6 hPa 0,0 l/m NO 0,00 h 23 W/m 3,3 km/h (1 Bft)
11.05.2016 07:00 10,5 C 97 % 1003,0 hPa 0,0 l/m NO 0,00 h 74 W/m 3,5 km/h (1 Bft)
11.05.2016 08:00 11,7 C 94 % 1002,3 hPa 0,0 l/m NO 0,00 h 145 W/m 8,7 km/h (2 Bft)
11.05.2016 09:00 13,0 C 90 % 1002,2 hPa 0,0 l/m NO 0,25 h 286 W/m 14,0 km/h (3 Bft)
11.05.2016 10:00 15,8 C 79 % 1001,5 hPa 0,0 l/m NO 0,92 h 522 W/m 17,2 km/h (3 Bft)
11.05.2016 11:00 18,4 C 69 % 1000,7 hPa 0,0 l/m O-NO 1,00 h 587 W/m 20,5 km/h (4 Bft)
11.05.2016 12:00 20,0 C 62 % 1000,2 hPa 0,0 l/m O 1,00 h 576 W/m 20,1 km/h (4 Bft)
11.05.2016 13:00 20,8 C 60 % 999,7 hPa 0,0 l/m O-NO 1,00 h 670 W/m 20,2 km/h (4 Bft)
11.05.2016 14:00 21,2 C 57 % 999,7 hPa 0,0 l/m O 0,33 h 393 W/m 20,8 km/h (4 Bft)
11.05.2016 15:00 20,7 C 60 % 999,3 hPa 0,0 l/m O 0,00 h 257 W/m 17,2 km/h (3 Bft)
11.05.2016 16:00 19,7 C 69 % 999,0 hPa 0,0 l/m O-SO 0,00 h 88 W/m 15,8 km/h (3 Bft)
11.05.2016 17:00 17,2 C 81 % 998,8 hPa 0,0 l/m O-NO 0,00 h 43 W/m 7,5 km/h (2 Bft)
11.05.2016 18:00 16,0 C 82 % 998,4 hPa 0,0 l/m O 0,00 h 68 W/m 5,8 km/h (1 Bft)
11.05.2016 19:00 16,2 C 79 % 998,0 hPa 0,0 l/m O-NO 0,00 h 58 W/m 6,0 km/h (2 Bft)
11.05.2016 20:00 15,8 C 82 % 997,6 hPa 0,0 l/m NO 0,00 h 11 W/m 5,5 km/h (1 Bft)
11.05.2016 21:00 14,8 C 86 % 997,3 hPa 0,0 l/m NO 0,00 h 0 W/m 4,1 km/h (1 Bft)
11.05.2016 22:00 14,2 C 90 % 997,0 hPa 0,0 l/m N 0,00 h 0 W/m 8,0 km/h (2 Bft)
11.05.2016 23:00 13,8 C 91 % 996,8 hPa 0,0 l/m N 0,00 h 0 W/m 4,7 km/h (1 Bft)
12.05.2016 00:00 13,3 C 93 % 996,5 hPa 0,0 l/m N 0,00 h 0 W/m 2,5 km/h (1 Bft)
12.05.2016 01:00 12,8 C 95 % 996,1 hPa 0,0 l/m N 0,00 h 0 W/m 3,1 km/h (1 Bft)
12.05.2016 02:00 12,6 C 94 % 995,8 hPa 0,0 l/m N 0,00 h 0 W/m 0,5 km/h (0 Bft)
12.05.2016 03:00 11,6 C 96 % 995,4 hPa 0,0 l/m N 0,00 h 0 W/m 0,3 km/h (0 Bft)
12.05.2016 04:00 11,6 C 97 % 995,6 hPa 0,0 l/m N 0,00 h 0 W/m 0,0 km/h (0 Bft)
12.05.2016 05:00 11,9 C 97 % 995,6 hPa 0,0 l/m W 0,00 h 0 W/m 2,0 km/h (1 Bft)
12.05.2016 06:00 12,1 C 96 % 995,5 hPa 0,0 l/m W-SW 0,00 h 10 W/m 14,2 km/h (3 Bft)
12.05.2016 07:00 11,7 C 93 % 995,8 hPa 0,2 l/m SW 0,00 h 19 W/m 16,0 km/h (3 Bft)
12.05.2016 08:00 11,3 C 93 % 995,7 hPa 0,0 l/m SW 0,00 h 37 W/m 18,4 km/h (3 Bft)
12.05.2016 09:00 11,1 C 93 % 995,8 hPa 0,0 l/m W-SW 0,00 h 33 W/m 18,4 km/h (3 Bft)
12.05.2016 10:00 10,9 C 94 % 995,9 hPa 0,0 l/m SW 0,00 h 29 W/m 12,6 km/h (3 Bft)
12.05.2016 11:00 10,8 C 96 % 996,0 hPa 0,2 l/m W-SW 0,00 h 45 W/m 15,0 km/h (3 Bft)
12.05.2016 12:00 10,5 C 97 % 995,9 hPa 0,4 l/m W-SW 0,00 h 42 W/m 16,5 km/h (3 Bft)
12.05.2016 13:00 10,4 C 98 % 996,1 hPa 1,6 l/m W-SW 0,00 h 70 W/m 17,4 km/h (3 Bft)
12.05.2016 14:00 10,7 C 98 % 996,0 hPa 1,6 l/m W-SW 0,00 h 89 W/m 19,4 km/h (3 Bft)
12.05.2016 15:00 10,7 C 98 % 996,0 hPa 1,6 l/m SW 0,00 h 52 W/m 18,5 km/h (3 Bft)
12.05.2016 16:00 10,6 C 98 % 996,0 hPa 2,4 l/m SW 0,00 h 53 W/m 14,9 km/h (3 Bft)
12.05.2016 17:00 10,5 C 98 % 995,9 hPa 1,2 l/m SW 0,00 h 42 W/m 18,0 km/h (3 Bft)
12.05.2016 18:00 9,9 C 99 % 996,0 hPa 0,8 l/m SW 0,00 h 17 W/m 21,3 km/h (4 Bft)
12.05.2016 19:00 9,5 C 98 % 995,9 hPa 1,8 l/m SW 0,00 h 15 W/m 24,9 km/h (4 Bft)
12.05.2016 20:00 9,0 C 99 % 996,0 hPa 3,0 l/m SW 0,00 h 5 W/m 24,8 km/h (4 Bft)
12.05.2016 21:00 8,7 C 99 % 996,3 hPa 6,2 l/m SW 0,00 h 0 W/m 24,5 km/h (4 Bft)
12.05.2016 22:00 8,6 C 99 % 996,3 hPa 5,4 l/m W-SW 0,00 h 0 W/m 26,7 km/h (4 Bft)
12.05.2016 23:00 8,5 C 99 % 996,1 hPa 2,4 l/m SW 0,00 h 0 W/m 20,0 km/h (4 Bft)
13.05.2016 00:00 8,7 C 99 % 995,8 hPa 2,8 l/m SW 0,00 h 0 W/m 19,0 km/h (3 Bft)
13.05.2016 01:00 8,8 C 99 % 995,6 hPa 1,2 l/m W-SW 0,00 h 0 W/m 25,8 km/h (4 Bft)
13.05.2016 02:00 8,5 C 99 % 995,5 hPa 1,2 l/m SW 0,00 h 0 W/m 18,2 km/h (3 Bft)
13.05.2016 03:00 8,3 C 99 % 995,4 hPa 0,8 l/m SW 0,00 h 0 W/m 18,0 km/h (3 Bft)
13.05.2016 04:00 8,3 C 99 % 995,5 hPa 0,4 l/m S-SW 0,00 h 0 W/m 6,7 km/h (2 Bft)
13.05.2016 05:00 8,3 C 99 % 995,5 hPa 1,2 l/m S 0,00 h 0 W/m 6,2 km/h (2 Bft)
13.05.2016 06:00 8,4 C 99 % 995,6 hPa 1,8 l/m S-SW 0,00 h 8 W/m 3,9 km/h (1 Bft)
13.05.2016 07:00 8,7 C 100 % 996,0 hPa 2,4 l/m S-SW 0,00 h 17 W/m 5,4 km/h (1 Bft)
13.05.2016 08:00 9,0 C 100 % 996,4 hPa 1,8 l/m S-SW 0,00 h 29 W/m 7,3 km/h (2 Bft)
13.05.2016 09:00 9,5 C 100 % 996,7 hPa 0,8 l/m S-SW 0,00 h 68 W/m 8,9 km/h (2 Bft)
13.05.2016 10:00 9,9 C 100 % 997,1 hPa 1,6 l/m S-SW 0,00 h 70 W/m 10,2 km/h (2 Bft)
13.05.2016 11:00 10,4 C 100 % 997,4 hPa 0,8 l/m S-SW 0,00 h 79 W/m 7,3 km/h (2 Bft)
13.05.2016 12:00 10,7 C 100 % 998,0 hPa 1,4 l/m S-SW 0,00 h 72 W/m 2,8 km/h (1 Bft)
13.05.2016 13:00 11,1 C 100 % 998,5 hPa 0,4 l/m S-SW 0,00 h 120 W/m 1,7 km/h (1 Bft)
13.05.2016 14:00 11,6 C 100 % 999,0 hPa 0,2 l/m N 0,00 h 82 W/m 0,3 km/h (0 Bft)
13.05.2016 15:00 12,2 C 99 % 999,3 hPa 0,0 l/m S-SW 0,00 h 190 W/m 5,2 km/h (1 Bft)
13.05.2016 16:00 12,9 C 97 % 999,4 hPa 0,0 l/m S-SW 0,00 h 194 W/m 9,1 km/h (2 Bft)
13.05.2016 17:00 13,0 C 95 % 999,5 hPa 0,0 l/m S-SW 0,00 h 165 W/m 11,6 km/h (2 Bft)
13.05.2016 18:00 13,0 C 95 % 999,8 hPa 0,0 l/m SW 0,00 h 46 W/m 5,6 km/h (1 Bft)
13.05.2016 19:00 12,3 C 97 % 1000,2 hPa 0,2 l/m S-SW 0,00 h 17 W/m 8,1 km/h (2 Bft)
13.05.2016 20:00 11,7 C 98 % 1000,7 hPa 0,2 l/m SW 0,00 h 12 W/m 10,2 km/h (2 Bft)
13.05.2016 21:00 11,5 C 99 % 1001,3 hPa 0,0 l/m SW 0,00 h 0 W/m 1,1 km/h (0 Bft)
13.05.2016 22:00 11,4 C 99 % 1001,7 hPa 0,0 l/m N 0,00 h 0 W/m 0,0 km/h (0 Bft)
13.05.2016 23:00 11,4 C 100 % 1002,0 hPa 0,0 l/m N 0,00 h 0 W/m 0,0 km/h (0 Bft)
14.05.2016 00:00 11,3 C 100 % 1002,1 hPa 0,0 l/m SW 0,00 h 0 W/m 0,5 km/h (0 Bft)
14.05.2016 01:00 10,9 C 100 % 1002,1 hPa 0,2 l/m N 0,00 h 0 W/m 0,4 km/h (0 Bft)
14.05.2016 02:00 10,7 C 100 % 1002,2 hPa 0,0 l/m N 0,00 h 0 W/m 1,7 km/h (1 Bft)
14.05.2016 03:00 10,8 C 100 % 1002,4 hPa 0,4 l/m SW 0,00 h 0 W/m 0,5 km/h (0 Bft)
14.05.2016 04:00 10,8 C 100 % 1002,6 hPa 0,4 l/m N 0,00 h 0 W/m 1,1 km/h (0 Bft)
14.05.2016 05:00 10,6 C 100 % 1002,8 hPa 0,6 l/m W-SW 0,00 h 0 W/m 4,3 km/h (1 Bft)
14.05.2016 06:00 10,5 C 100 % 1003,3 hPa 1,0 l/m NW 0,00 h 9 W/m 8,0 km/h (2 Bft)
14.05.2016 07:00 10,4 C 100 % 1003,8 hPa 1,0 l/m N-NW 0,00 h 20 W/m 11,2 km/h (2 Bft)
14.05.2016 08:00 10,3 C 100 % 1004,2 hPa 1,6 l/m N-NW 0,00 h 21 W/m 8,2 km/h (2 Bft)
14.05.2016 09:00 10,8 C 100 % 1004,7 hPa 0,2 l/m N-NW 0,00 h 86 W/m 2,1 km/h (1 Bft)
14.05.2016 10:00 11,5 C 98 % 1005,4 hPa 0,0 l/m N-NW 0,00 h 152 W/m 4,3 km/h (1 Bft)
14.05.2016 11:00 12,8 C 94 % 1006,1 hPa 0,0 l/m NW 0,25 h 338 W/m 9,2 km/h (2 Bft)
14.05.2016 12:00 13,1 C 89 % 1006,2 hPa 0,2 l/m SW 0,00 h 129 W/m 10,1 km/h (2 Bft)
14.05.2016 13:00 11,8 C 92 % 1006,2 hPa 0,4 l/m W-SW 0,00 h 38 W/m 12,7 km/h (3 Bft)
14.05.2016 14:00 10,1 C 91 % 1007,0 hPa 0,0 l/m W-SW 0,00 h 77 W/m 17,6 km/h (3 Bft)
14.05.2016 15:00 10,6 C 95 % 1007,5 hPa 0,4 l/m W-SW 0,25 h 270 W/m 14,1 km/h (3 Bft)
14.05.2016 16:00 12,0 C 90 % 1007,7 hPa 0,0 l/m W-SW 0,08 h 214 W/m 18,2 km/h (3 Bft)
14.05.2016 17:00 9,8 C 91 % 1008,6 hPa 0,6 l/m W-NW 0,00 h 53 W/m 12,3 km/h (3 Bft)
14.05.2016 18:00 9,0 C 95 % 1009,2 hPa 2,0 l/m W-NW 0,00 h 22 W/m 10,3 km/h (2 Bft)
14.05.2016 19:00 8,7 C 97 % 1009,9 hPa 1,0 l/m W-NW 0,00 h 24 W/m 5,7 km/h (1 Bft)
14.05.2016 20:00 8,2 C 96 % 1010,7 hPa 0,0 l/m N 0,00 h 14 W/m 7,8 km/h (2 Bft)
14.05.2016 21:00 7,7 C 95 % 1011,6 hPa 0,0 l/m N 0,00 h 0 W/m 3,1 km/h (1 Bft)
14.05.2016 22:00 7,1 C 96 % 1012,3 hPa 0,0 l/m N 0,00 h 0 W/m 2,3 km/h (1 Bft)
14.05.2016 23:00 6,2 C 95 % 1013,2 hPa 0,0 l/m N 0,00 h 0 W/m 2,5 km/h (1 Bft)
15.05.2016 00:00 4,8 C 97 % 1013,5 hPa 0,0 l/m N 0,00 h 0 W/m 0,0 km/h (0 Bft)
15.05.2016 01:00 3,6 C 98 % 1013,9 hPa 0,0 l/m N 0,00 h 0 W/m 0,1 km/h (0 Bft)
15.05.2016 02:00 3,7 C 98 % 1014,2 hPa 0,0 l/m N 0,00 h 0 W/m 0,0 km/h (0 Bft)
15.05.2016 03:00 4,3 C 99 % 1014,6 hPa 0,0 l/m N 0,00 h 0 W/m 0,0 km/h (0 Bft)
15.05.2016 04:00 4,5 C 98 % 1015,2 hPa 0,0 l/m N 0,00 h 0 W/m 0,9 km/h (0 Bft)
15.05.2016 05:00 4,5 C 97 % 1015,5 hPa 0,0 l/m N-NW 0,00 h 5 W/m 7,4 km/h (2 Bft)
15.05.2016 06:00 4,5 C 94 % 1015,9 hPa 0,0 l/m N-NW 0,00 h 20 W/m 4,1 km/h (1 Bft)
15.05.2016 07:00 4,9 C 93 % 1016,5 hPa 0,0 l/m NW 0,00 h 55 W/m 3,6 km/h (1 Bft)
15.05.2016 08:00 5,4 C 87 % 1017,0 hPa 0,0 l/m N 0,00 h 144 W/m 9,5 km/h (2 Bft)
15.05.2016 09:00 6,7 C 81 % 1017,3 hPa 0,0 l/m NW 0,67 h 477 W/m 9,8 km/h (2 Bft)
15.05.2016 10:00 7,7 C 76 % 1017,6 hPa 0,0 l/m NW 0,42 h 401 W/m 12,6 km/h (3 Bft)
15.05.2016 11:00 8,2 C 70 % 1017,8 hPa 0,0 l/m NW 0,33 h 439 W/m 15,4 km/h (3 Bft)
15.05.2016 12:00 8,8 C 65 % 1018,2 hPa 0,0 l/m W-NW 0,42 h 532 W/m 16,9 km/h (3 Bft)
15.05.2016 13:00 9,8 C 59 % 1018,1 hPa 0,0 l/m W-NW 0,50 h 595 W/m 20,2 km/h (4 Bft)
15.05.2016 14:00 10,4 C 56 % 1018,1 hPa 0,0 l/m NW 0,75 h 744 W/m 20,4 km/h (4 Bft)
15.05.2016 15:00 10,0 C 55 % 1018,2 hPa 0,0 l/m W-NW 0,25 h 406 W/m 19,3 km/h (3 Bft)
15.05.2016 16:00 9,4 C 57 % 1018,4 hPa 0,0 l/m N-NW 0,08 h 287 W/m 19,0 km/h (3 Bft)
15.05.2016 17:00 9,4 C 55 % 1018,6 hPa 0,0 l/m NW 0,33 h 280 W/m 20,8 km/h (4 Bft)
15.05.2016 18:00 9,1 C 56 % 1018,9 hPa 0,0 l/m N 0,50 h 237 W/m 18,2 km/h (3 Bft)
15.05.2016 19:00 8,2 C 61 % 1019,1 hPa 0,0 l/m W-NW 0,08 h 80 W/m 15,2 km/h (3 Bft)
15.05.2016 20:00 7,2 C 66 % 1019,5 hPa 0,0 l/m NW 0,00 h 14 W/m 12,9 km/h (3 Bft)
15.05.2016 21:00 6,5 C 70 % 1019,8 hPa 0,0 l/m NW 0,00 h 0 W/m 8,0 km/h (2 Bft)
15.05.2016 22:00 6,2 C 72 % 1020,3 hPa 0,0 l/m NW 0,00 h 0 W/m 2,8 km/h (1 Bft)
15.05.2016 23:00 5,1 C 80 % 1020,5 hPa 0,0 l/m NW 0,00 h 0 W/m 2,1 km/h (1 Bft)
Min-Datum _ 15.05.16 09.05.16 12.05.16 - - - - 09.05.16
_ Min-Zeit 01:40 17:15 03:20 - - - - 00:00
Minimum _ 3,3 C 39 % 995,3 hPa - - - - 0,0 km/h (0 Bft)
Max-Datum _ 09.05.16 13.05.16 15.05.16 12.05.16 - 09.05.16 15.05.16 12.05.16
_ Max-Zeit 17:15 07:05 23:40 21:40 - 07:25 14:25 22:10
Maximum _ 23,8 C 100 % 1020,6 hPa 6,2 l/m - 0,08 h 1048 W/m 32,2 km/h
SW (5 Bft)
Durchschnitt _ 12,0 C 85 % 1005,1 hPa #58,0 l/m SW #22:00 h 191 W/m 8,3 km/h (2 Bft)